createdAt,value
2018-04-08T00:01:25.804Z,7.80
2018-04-08T00:03:54.651Z,7.80
2018-04-08T00:06:23.886Z,7.70
2018-04-08T00:08:52.390Z,7.70
2018-04-08T00:11:20.812Z,7.70
2018-04-08T00:13:50.152Z,7.60
2018-04-08T00:16:19.341Z,7.60
2018-04-08T00:18:48.553Z,7.60
2018-04-08T00:21:16.933Z,7.50
2018-04-08T00:23:45.447Z,7.60
2018-04-08T00:26:14.092Z,7.50
2018-04-08T00:28:42.458Z,7.50
2018-04-08T00:31:11.869Z,7.50
2018-04-08T00:33:40.455Z,7.40
2018-04-08T00:36:09.035Z,7.40
2018-04-08T00:38:37.423Z,7.40
2018-04-08T00:41:05.854Z,7.30
2018-04-08T00:43:34.375Z,7.30
2018-04-08T00:46:02.811Z,7.30
2018-04-08T00:48:31.358Z,7.30
2018-04-08T00:50:59.757Z,7.20
2018-04-08T00:53:28.301Z,7.20
2018-04-08T00:55:56.726Z,7.20
2018-04-08T00:58:25.291Z,7.20
2018-04-08T01:00:54.218Z,7.10
2018-04-08T01:03:22.370Z,7.10
2018-04-08T01:05:51.520Z,7.00
2018-04-08T01:08:19.797Z,7.10
2018-04-08T01:10:47.936Z,7.00
2018-04-08T01:13:16.660Z,7.00
2018-04-08T01:15:44.793Z,7.00
2018-04-08T01:18:12.998Z,7.00
2018-04-08T01:20:41.586Z,6.90
2018-04-08T01:23:10.275Z,6.90
2018-04-08T01:25:38.722Z,6.90
2018-04-08T01:28:07.334Z,6.80
2018-04-08T01:30:37.214Z,6.80
2018-04-08T01:33:05.837Z,6.80
2018-04-08T01:35:34.418Z,6.80
2018-04-08T01:38:02.858Z,6.80
2018-04-08T01:40:38.743Z,6.70
2018-04-08T01:43:08.049Z,6.70
2018-04-08T01:45:36.545Z,6.60
2018-04-08T01:48:05.113Z,6.60
2018-04-08T01:50:33.603Z,6.60
2018-04-08T01:53:02.007Z,6.60
2018-04-08T01:55:30.553Z,6.60
2018-04-08T01:57:58.997Z,6.50
2018-04-08T02:00:27.384Z,6.50
2018-04-08T02:02:57.128Z,6.50
2018-04-08T02:05:25.707Z,6.40
2018-04-08T02:07:54.129Z,6.40
2018-04-08T02:10:22.775Z,6.40
2018-04-08T02:12:51.355Z,6.30
2018-04-08T02:15:19.938Z,6.30
2018-04-08T02:17:48.333Z,6.30
2018-04-08T02:20:16.914Z,6.30
2018-04-08T02:22:45.377Z,6.30
2018-04-08T02:25:13.964Z,6.30
2018-04-08T02:27:43.230Z,6.20
2018-04-08T02:30:12.560Z,6.20
2018-04-08T02:32:40.989Z,6.20
2018-04-08T02:35:09.632Z,6.20
2018-04-08T02:37:38.119Z,6.10
2018-04-08T02:40:06.538Z,6.10
2018-04-08T02:42:35.175Z,6.00
2018-04-08T02:45:03.775Z,6.00
2018-04-08T02:47:32.233Z,6.00
2018-04-08T02:50:01.538Z,6.00
2018-04-08T02:52:30.040Z,6.00
2018-04-08T02:54:58.709Z,6.00
2018-04-08T02:57:27.135Z,5.90
2018-04-08T02:59:56.487Z,5.90
2018-04-08T03:02:24.982Z,5.90
2018-04-08T03:04:53.404Z,5.90
2018-04-08T03:07:22.026Z,5.80
2018-04-08T03:09:50.609Z,5.80
2018-04-08T03:12:19.112Z,5.80
2018-04-08T03:14:48.090Z,5.80
2018-04-08T03:17:16.667Z,5.70
2018-04-08T03:19:46.067Z,5.70
2018-04-08T03:22:14.654Z,5.70
2018-04-08T03:24:43.173Z,5.70
2018-04-08T03:27:11.717Z,5.70
2018-04-08T03:29:40.909Z,5.60
2018-04-08T03:32:09.688Z,5.60
2018-04-08T03:34:38.915Z,5.60
2018-04-08T03:37:07.308Z,5.60
2018-04-08T03:39:35.733Z,5.50
2018-04-08T03:42:04.214Z,5.50
2018-04-08T03:44:33.129Z,5.40
2018-04-08T03:47:01.518Z,5.40
2018-04-08T03:49:30.091Z,5.40
2018-04-08T03:51:59.496Z,5.50
2018-04-08T03:54:27.920Z,5.40
2018-04-08T03:56:56.559Z,5.50
2018-04-08T03:59:25.148Z,5.40
2018-04-08T04:01:53.917Z,5.40
2018-04-08T04:04:22.509Z,5.40
2018-04-08T04:06:51.805Z,5.30
2018-04-08T04:09:20.980Z,5.30
2018-04-08T04:11:49.592Z,5.30
2018-04-08T04:14:18.588Z,5.40
2018-04-08T04:16:47.166Z,5.40
2018-04-08T04:19:27.510Z,5.40
2018-04-08T04:22:12.537Z,5.40
2018-04-08T04:24:52.958Z,5.40
2018-04-08T04:27:21.432Z,5.40
2018-04-08T04:29:51.023Z,5.30
2018-04-08T04:32:20.443Z,5.20
2018-04-08T04:34:49.747Z,5.20
2018-04-08T04:37:19.149Z,5.20
2018-04-08T04:39:48.298Z,5.20
2018-04-08T04:42:16.782Z,5.20
2018-04-08T04:44:45.308Z,5.20
2018-04-08T04:47:14.603Z,5.10
2018-04-08T04:49:43.823Z,5.10
2018-04-08T04:52:12.216Z,5.10
2018-04-08T04:54:40.768Z,5.10
2018-04-08T04:57:09.967Z,5.20
2018-04-08T04:59:38.542Z,5.10
2018-04-08T05:02:07.848Z,5.20
2018-04-08T05:04:36.424Z,5.20
2018-04-08T05:07:05.010Z,5.30
2018-04-08T05:09:34.166Z,5.30
2018-04-08T05:12:02.583Z,5.30
2018-04-08T05:14:30.978Z,5.40
2018-04-08T05:17:04.305Z,5.40
2018-04-08T05:19:32.845Z,5.40
2018-04-08T05:22:01.430Z,5.40
2018-04-08T05:24:30.011Z,5.50
2018-04-08T05:26:58.594Z,5.50
2018-04-08T05:29:27.020Z,5.60
2018-04-08T05:31:57.000Z,5.70
2018-04-08T05:34:25.365Z,5.70
2018-04-08T05:36:54.506Z,6.00
2018-04-08T05:39:22.959Z,5.90
2018-04-08T05:41:51.522Z,6.10
2018-04-08T05:44:19.951Z,6.20
2018-04-08T05:46:48.436Z,6.40
2018-04-08T05:49:16.872Z,6.60
2018-04-08T05:51:45.265Z,6.80
2018-04-08T05:54:13.844Z,7.10
2018-04-08T05:56:42.329Z,7.40
2018-04-08T05:59:10.892Z,7.80
2018-04-08T06:01:39.364Z,8.20
2018-04-08T06:04:08.539Z,8.90
2018-04-08T06:06:37.784Z,9.30
2018-04-08T06:09:06.760Z,9.30
2018-04-08T06:11:35.343Z,9.70
2018-04-08T06:14:03.753Z,10.10
2018-04-08T06:16:32.584Z,10.50
2018-04-08T06:19:02.539Z,11.20
2018-04-08T06:21:31.109Z,11.20
2018-04-08T06:23:59.599Z,11.60
2018-04-08T06:26:28.067Z,11.90
2018-04-08T06:28:56.555Z,12.30
2018-04-08T06:31:25.152Z,12.60
2018-04-08T06:33:53.737Z,12.90
2018-04-08T06:36:22.298Z,13.20
2018-04-08T06:38:51.703Z,13.70
2018-04-08T06:41:20.919Z,13.90
2018-04-08T06:43:49.481Z,13.90
2018-04-08T06:46:18.685Z,14.30
2018-04-08T06:48:47.095Z,14.30
2018-04-08T06:51:15.665Z,14.50
2018-04-08T06:53:44.103Z,14.70
2018-04-08T06:56:13.420Z,15.20
2018-04-08T06:58:41.920Z,15.20
2018-04-08T07:01:10.399Z,15.40
2018-04-08T07:03:38.835Z,15.60
2018-04-08T07:06:07.232Z,15.80
2018-04-08T07:08:36.560Z,16.20
2018-04-08T07:11:05.127Z,16.20
2018-04-08T07:13:34.426Z,16.80
2018-04-08T07:16:03.722Z,17.10
2018-04-08T07:18:33.189Z,17.40
2018-04-08T07:21:01.728Z,17.30
2018-04-08T07:23:30.154Z,17.70
2018-04-08T07:25:58.774Z,18.00
2018-04-08T07:28:28.179Z,18.60
2018-04-08T07:30:56.676Z,18.60
2018-04-08T07:33:25.056Z,18.90
2018-04-08T07:35:53.445Z,19.20
2018-04-08T07:38:21.999Z,19.50
2018-04-08T07:40:50.495Z,19.80
2018-04-08T07:43:18.863Z,20.00
2018-04-08T07:45:47.437Z,20.30
2018-04-08T07:48:15.898Z,20.50
2018-04-08T07:50:45.223Z,20.90
2018-04-08T07:53:13.653Z,20.80
2018-04-08T07:55:42.194Z,21.10
2018-04-08T07:58:10.764Z,21.40
2018-04-08T08:00:39.969Z,21.60
2018-04-08T08:03:09.131Z,21.90
2018-04-08T08:05:37.741Z,21.80
2018-04-08T08:08:07.059Z,22.20
2018-04-08T08:10:35.623Z,22.20
2018-04-08T08:13:04.766Z,22.50
2018-04-08T08:15:33.302Z,22.50
2018-04-08T08:18:01.993Z,22.70
2018-04-08T08:20:30.574Z,23.00
2018-04-08T08:22:59.904Z,23.40
2018-04-08T08:25:28.496Z,23.30
2018-04-08T08:27:56.901Z,23.40
2018-04-08T08:30:25.319Z,23.50
2018-04-08T08:32:54.469Z,23.90
2018-04-08T08:35:22.901Z,23.80
2018-04-08T08:37:51.476Z,24.10
2018-04-08T08:40:20.670Z,24.20
2018-04-08T08:42:49.873Z,24.30
2018-04-08T08:45:18.248Z,24.30
2018-04-08T08:47:47.558Z,24.50
2018-04-08T08:50:16.132Z,24.50
2018-04-08T08:52:44.716Z,24.70
2018-04-08T08:55:13.902Z,24.90
2018-04-08T08:57:43.207Z,24.80
2018-04-08T09:00:11.706Z,24.80
2018-04-08T09:02:42.850Z,25.00
2018-04-08T09:05:11.435Z,25.10
2018-04-08T09:07:39.818Z,25.20
2018-04-08T09:10:08.377Z,25.30
2018-04-08T09:12:37.679Z,25.60
2018-04-08T09:15:06.890Z,25.70
2018-04-08T09:17:35.386Z,25.70
2018-04-08T09:23:31.544Z,25.80
2018-04-08T09:26:11.615Z,25.90
2018-04-08T09:28:41.080Z,25.70
2018-04-08T09:31:09.449Z,25.60
2018-04-08T09:33:37.901Z,25.50
2018-04-08T09:36:06.336Z,25.40
2018-04-08T09:38:34.702Z,25.60
2018-04-08T09:41:03.567Z,25.80
2018-04-08T09:43:31.979Z,25.90
2018-04-08T09:46:00.395Z,26.00
2018-04-08T09:48:28.868Z,26.20
2018-04-08T09:50:57.262Z,26.20
2018-04-08T09:53:25.756Z,26.40
2018-04-08T09:55:54.945Z,26.60
2018-04-08T09:58:26.192Z,26.60
2018-04-08T10:03:56.763Z,26.70
2018-04-08T10:06:25.150Z,26.90
2018-04-08T10:08:53.614Z,27.10
2018-04-08T10:11:22.806Z,27.30
2018-04-08T10:13:51.991Z,27.30
2018-04-08T10:16:20.441Z,27.30
2018-04-08T10:18:48.902Z,27.10
2018-04-08T10:21:17.319Z,27.00
2018-04-08T10:23:45.775Z,26.90
2018-04-08T10:26:14.192Z,27.00
2018-04-08T10:28:42.623Z,26.80
2018-04-08T10:31:11.052Z,26.90
2018-04-08T10:33:40.707Z,26.90
2018-04-08T10:36:09.101Z,26.90
2018-04-08T10:38:37.508Z,26.80
2018-04-08T10:41:05.934Z,26.90
2018-04-08T10:43:34.337Z,26.90
2018-04-08T10:46:02.790Z,26.90
2018-04-08T10:48:31.227Z,26.90
2018-04-08T10:50:59.677Z,27.10
2018-04-08T10:53:28.112Z,27.10
2018-04-08T10:55:57.291Z,27.30
2018-04-08T10:58:26.096Z,27.30
2018-04-08T11:00:55.402Z,27.70
2018-04-08T11:03:24.616Z,27.70
2018-04-08T11:05:53.179Z,27.70
2018-04-08T11:08:21.685Z,27.80
2018-04-08T11:10:50.157Z,28.00
2018-04-08T11:13:18.555Z,28.10
2018-04-08T11:15:47.009Z,28.10
2018-04-08T11:18:15.586Z,28.10
2018-04-08T11:20:44.164Z,28.10
2018-04-08T11:23:12.748Z,28.20
2018-04-08T11:25:42.277Z,28.10
2018-04-08T11:28:10.711Z,28.10
2018-04-08T11:30:39.149Z,28.10
2018-04-08T11:33:07.697Z,28.00
2018-04-08T11:35:36.881Z,28.10
2018-04-08T11:38:05.312Z,28.10
2018-04-08T11:40:33.769Z,28.20
2018-04-08T11:43:02.238Z,28.40
2018-04-08T11:45:30.721Z,28.40
2018-04-08T11:47:59.859Z,28.10
2018-04-08T11:50:28.294Z,28.00
2018-04-08T11:52:57.511Z,27.90
2018-04-08T11:55:25.931Z,27.80
2018-04-08T11:57:54.371Z,27.70
2018-04-08T12:00:22.841Z,27.70
2018-04-08T12:02:51.344Z,27.70
2018-04-08T12:05:19.765Z,27.80
2018-04-08T12:07:48.174Z,27.90
2018-04-08T12:10:16.634Z,27.80
2018-04-08T12:12:45.850Z,27.70
2018-04-08T12:15:15.095Z,27.80
2018-04-08T12:17:43.560Z,27.70
2018-04-08T12:20:12.778Z,27.70
2018-04-08T12:22:46.515Z,27.70
2018-04-08T12:25:14.929Z,27.60
2018-04-08T12:27:43.431Z,27.70
2018-04-08T12:30:11.909Z,27.60
2018-04-08T12:32:40.369Z,27.60
2018-04-08T12:35:08.823Z,27.60
2018-04-08T12:37:38.032Z,27.50
2018-04-08T12:40:06.520Z,27.50
2018-04-08T12:42:34.922Z,27.40
2018-04-08T12:45:03.332Z,27.40
2018-04-08T12:47:31.818Z,27.30
2018-04-08T12:50:00.272Z,27.20
2018-04-08T12:52:28.723Z,27.00
2018-04-08T12:54:57.169Z,27.00
2018-04-08T12:57:26.389Z,26.80
2018-04-08T12:59:55.305Z,26.80
2018-04-08T13:02:23.730Z,26.70
2018-04-08T13:04:52.936Z,26.70
2018-04-08T13:07:21.371Z,26.70
2018-04-08T13:09:49.748Z,26.60
2018-04-08T13:12:18.222Z,26.40
2018-04-08T13:14:47.044Z,26.30
2018-04-08T13:17:15.459Z,26.30
2018-04-08T13:19:44.662Z,26.30
2018-04-08T13:22:13.087Z,26.30
2018-04-08T13:24:41.508Z,26.30
2018-04-08T13:27:10.692Z,26.50
2018-04-08T13:29:39.167Z,26.50
2018-04-08T13:32:07.562Z,26.60
2018-04-08T13:34:36.720Z,26.60
2018-04-08T13:37:05.192Z,26.50
2018-04-08T13:39:33.634Z,26.40
2018-04-08T13:42:02.108Z,26.40
2018-04-08T13:44:30.524Z,26.40
2018-04-08T13:46:59.300Z,26.50
2018-04-08T13:49:27.688Z,26.50
2018-04-08T13:51:57.124Z,26.40
2018-04-08T13:54:25.615Z,26.40
2018-04-08T13:56:54.860Z,26.30
2018-04-08T13:59:23.235Z,26.20
2018-04-08T14:01:51.987Z,26.30
2018-04-08T14:04:21.204Z,26.20
2018-04-08T14:06:49.617Z,26.20
2018-04-08T14:09:18.465Z,26.10
2018-04-08T14:11:48.683Z,26.00
2018-04-08T14:14:18.292Z,25.90
2018-04-08T14:16:47.634Z,25.90
2018-04-08T14:19:17.031Z,25.90
2018-04-08T14:21:45.849Z,25.90
2018-04-08T14:24:14.292Z,26.00
2018-04-08T14:26:42.700Z,26.00
2018-04-08T14:29:13.059Z,25.90
2018-04-08T14:31:42.746Z,25.90
2018-04-08T14:34:11.229Z,25.80
2018-04-08T14:36:39.667Z,25.70
2018-04-08T14:39:08.067Z,25.60
2018-04-08T14:41:36.522Z,25.50
2018-04-08T14:44:04.931Z,25.40
2018-04-08T14:46:33.351Z,25.40
2018-04-08T14:49:01.783Z,25.20
2018-04-08T14:51:30.217Z,25.10
2018-04-08T14:54:00.115Z,24.80
2018-04-08T14:56:29.267Z,24.80
2018-04-08T14:58:57.721Z,24.80
2018-04-08T15:01:28.327Z,24.80
2018-04-08T15:03:56.768Z,24.80
2018-04-08T15:06:26.174Z,24.90
2018-04-08T15:08:54.608Z,24.90
2018-04-08T15:11:23.080Z,24.90
2018-04-08T15:13:52.348Z,24.80
2018-04-08T15:16:20.806Z,24.80
2018-04-08T15:18:49.374Z,24.80
2018-04-08T15:21:17.822Z,24.80
2018-04-08T15:23:47.016Z,24.80
2018-04-08T15:26:15.431Z,24.80
2018-04-08T15:28:43.843Z,24.70
2018-04-08T15:31:13.492Z,24.50
2018-04-08T15:33:41.960Z,24.50
2018-04-08T15:36:10.382Z,24.50
2018-04-08T15:38:38.804Z,24.50
2018-04-08T15:41:07.218Z,24.50
2018-04-08T15:43:35.678Z,24.30
2018-04-08T15:46:07.029Z,24.10
2018-04-08T15:48:36.322Z,24.00
2018-04-08T15:51:05.638Z,23.90
2018-04-08T15:53:34.108Z,23.90
2018-04-08T15:56:02.614Z,23.80
2018-04-08T15:58:31.180Z,23.70
2018-04-08T16:00:59.765Z,23.60
2018-04-08T16:03:28.183Z,23.50
2018-04-08T16:05:56.640Z,23.40
2018-04-08T16:08:25.524Z,23.40
2018-04-08T16:10:53.908Z,23.30
2018-04-08T16:13:22.340Z,23.30
2018-04-08T16:15:50.748Z,23.20
2018-04-08T16:18:20.052Z,23.10
2018-04-08T16:20:48.504Z,23.10
2018-04-08T16:23:17.113Z,23.00
2018-04-08T16:25:45.693Z,23.00
2018-04-08T16:28:14.080Z,22.90
2018-04-08T16:30:43.782Z,22.70
2018-04-08T16:33:12.283Z,22.60
2018-04-08T16:35:41.172Z,22.50
2018-04-08T16:38:09.742Z,22.40
2018-04-08T16:40:38.333Z,22.30
2018-04-08T16:43:06.823Z,22.20
2018-04-08T16:45:35.282Z,22.10
2018-04-08T16:48:04.581Z,21.80
2018-04-08T16:50:33.369Z,21.80
2018-04-08T16:53:02.877Z,21.60
2018-04-08T16:55:31.333Z,21.60
2018-04-08T16:57:59.801Z,21.50
2018-04-08T17:00:28.220Z,21.40
2018-04-08T17:02:56.796Z,21.30
2018-04-08T17:05:25.375Z,21.10
2018-04-08T17:07:53.969Z,21.00
2018-04-08T17:10:22.843Z,21.00
2018-04-08T17:12:51.994Z,20.80
2018-04-08T17:15:20.535Z,20.70
2018-04-08T17:17:49.125Z,20.60
2018-04-08T17:20:17.698Z,20.50
2018-04-08T17:22:47.408Z,20.30
2018-04-08T17:25:15.856Z,20.30
2018-04-08T17:27:44.367Z,20.20
2018-04-08T17:30:12.804Z,20.10
2018-04-08T17:32:41.331Z,20.00
2018-04-08T17:35:09.753Z,20.00
2018-04-08T17:37:38.199Z,19.80
2018-04-08T17:40:06.678Z,19.70
2018-04-08T17:42:35.176Z,19.60
2018-04-08T17:45:03.841Z,19.60
2018-04-08T17:47:32.730Z,19.50
2018-04-08T17:50:04.899Z,19.20
2018-04-08T17:52:35.557Z,19.10
2018-04-08T17:55:04.214Z,19.10
2018-04-08T17:57:32.907Z,19.00
2018-04-08T18:00:01.475Z,18.90
2018-04-08T18:02:31.092Z,18.80
2018-04-08T18:05:00.472Z,18.70
2018-04-08T18:07:28.970Z,18.60
2018-04-08T18:09:58.329Z,18.50
2018-04-08T18:12:26.877Z,18.50
2018-04-08T18:14:55.441Z,18.40
2018-04-08T18:17:24.022Z,18.40
2018-04-08T18:19:53.183Z,18.20
2018-04-08T18:22:21.798Z,18.20
2018-04-08T18:24:50.939Z,18.10
2018-04-08T18:27:19.477Z,18.00
2018-04-08T18:29:48.700Z,17.90
2018-04-08T18:32:17.174Z,17.90
2018-04-08T18:34:46.047Z,17.90
2018-04-08T18:37:14.445Z,17.80
2018-04-08T18:39:43.836Z,17.80
2018-04-08T18:42:13.232Z,17.70
2018-04-08T18:44:41.637Z,17.70
2018-04-08T18:47:10.082Z,17.70
2018-04-08T18:49:39.490Z,17.60
2018-04-08T18:52:08.791Z,17.60
2018-04-08T18:54:37.374Z,17.50
2018-04-08T18:57:06.673Z,17.50
2018-04-08T18:59:35.978Z,17.50
2018-04-08T19:02:09.492Z,17.40
2018-04-08T19:04:37.884Z,17.40
2018-04-08T19:07:06.535Z,17.30
2018-04-08T19:09:34.967Z,17.30
2018-04-08T19:12:03.603Z,17.20
2018-04-08T19:14:38.386Z,17.10
2018-04-08T19:17:06.808Z,17.10
2018-04-08T19:19:35.944Z,17.00
2018-04-08T19:22:04.695Z,17.00
2018-04-08T19:24:33.853Z,16.90
2018-04-08T19:27:02.472Z,16.90
2018-04-08T19:29:30.967Z,16.80
2018-04-08T19:31:59.564Z,16.80
2018-04-08T19:34:28.128Z,16.70
2018-04-08T19:36:56.610Z,16.70
2018-04-08T19:39:25.188Z,16.60
2018-04-08T19:41:53.766Z,16.60
2018-04-08T19:44:22.148Z,16.50
2018-04-08T19:46:50.724Z,16.50
2018-04-08T19:49:20.027Z,16.40
2018-04-08T19:51:49.325Z,16.30
2018-04-08T19:54:18.631Z,16.30
2018-04-08T19:56:47.624Z,16.30
2018-04-08T19:59:16.207Z,16.20
2018-04-08T20:01:45.499Z,16.10
2018-04-08T20:04:14.216Z,16.10
2018-04-08T20:06:42.776Z,16.10
2018-04-08T20:09:11.916Z,16.00
2018-04-08T20:11:40.558Z,16.00
2018-04-08T20:14:09.141Z,16.00
2018-04-08T20:16:38.130Z,15.90
2018-04-08T20:19:07.344Z,15.90
2018-04-08T20:21:35.724Z,15.80
2018-04-08T20:24:04.492Z,15.80
2018-04-08T20:26:33.585Z,15.80
2018-04-08T20:29:02.035Z,15.70
2018-04-08T20:31:32.290Z,15.70
2018-04-08T20:34:02.318Z,15.60
2018-04-08T20:36:31.922Z,15.60
2018-04-08T20:39:00.497Z,15.60
2018-04-08T20:41:29.520Z,15.50
2018-04-08T20:43:58.378Z,15.50
2018-04-08T20:46:27.576Z,15.50
2018-04-08T20:48:56.754Z,15.40
2018-04-08T20:51:25.364Z,15.40
2018-04-08T20:53:53.805Z,15.40
2018-04-08T20:56:22.320Z,15.30
2018-04-08T20:58:51.008Z,15.30
2018-04-08T21:01:19.418Z,15.30
2018-04-08T21:03:47.971Z,15.20
2018-04-08T21:06:17.675Z,15.10
2018-04-08T21:08:46.978Z,15.10
2018-04-08T21:11:15.393Z,15.10
2018-04-08T21:13:44.226Z,15.00
2018-04-08T21:16:13.547Z,15.00
2018-04-08T21:18:42.043Z,14.90
2018-04-08T21:21:10.483Z,14.90
2018-04-08T21:23:39.092Z,14.90
2018-04-08T21:26:08.309Z,14.80
2018-04-08T21:28:36.716Z,14.80
2018-04-08T21:31:05.132Z,14.80
2018-04-08T21:33:33.729Z,14.70
2018-04-08T21:36:02.234Z,14.60
2018-04-08T21:38:30.628Z,14.60
2018-04-08T21:40:59.092Z,14.60
2018-04-08T21:43:27.649Z,14.50
2018-04-08T21:45:56.866Z,14.40
2018-04-08T21:48:25.353Z,14.40
2018-04-08T21:50:53.811Z,14.30
2018-04-08T21:53:22.805Z,14.30
2018-04-08T21:55:51.232Z,14.20
2018-04-08T21:58:19.647Z,14.20
2018-04-08T22:00:48.245Z,14.10
2018-04-08T22:03:16.675Z,14.00
2018-04-08T22:05:45.313Z,14.00
2018-04-08T22:08:13.894Z,13.90
2018-04-08T22:10:42.478Z,13.90
2018-04-08T22:13:11.708Z,13.70
2018-04-08T22:15:40.101Z,13.70
2018-04-08T22:18:09.365Z,13.60
2018-04-08T22:20:37.935Z,13.60
2018-04-08T22:23:06.520Z,13.60
2018-04-08T22:25:35.681Z,13.40
2018-04-08T22:28:04.118Z,13.40
2018-04-08T22:30:32.518Z,13.30
2018-04-08T22:33:01.159Z,13.30
2018-04-08T22:35:29.654Z,13.20
2018-04-08T22:37:58.131Z,13.10
2018-04-08T22:40:26.538Z,13.10
2018-04-08T22:42:55.089Z,13.00
2018-04-08T22:45:23.489Z,13.00
2018-04-08T22:47:51.860Z,13.00
2018-04-08T22:50:20.751Z,12.90
2018-04-08T22:52:49.203Z,12.90
2018-04-08T22:55:18.386Z,12.80
2018-04-08T22:57:46.792Z,12.80
2018-04-08T23:00:26.462Z,12.80
2018-04-08T23:02:54.627Z,12.80
2018-04-08T23:05:23.186Z,12.70
2018-04-08T23:07:53.436Z,12.70
2018-04-08T23:10:22.087Z,12.70
2018-04-08T23:12:51.490Z,12.60
2018-04-08T23:15:20.080Z,12.60
2018-04-08T23:17:48.682Z,12.60
2018-04-08T23:20:17.245Z,12.60
2018-04-08T23:22:45.743Z,12.60
2018-04-08T23:25:14.162Z,12.50
2018-04-08T23:27:42.572Z,12.50
2018-04-08T23:30:11.790Z,12.50
2018-04-08T23:32:40.192Z,12.40
2018-04-08T23:35:08.673Z,12.40
2018-04-08T23:37:37.220Z,12.40
2018-04-08T23:40:06.410Z,12.30
2018-04-08T23:42:35.718Z,12.30
2018-04-08T23:45:04.916Z,12.20
2018-04-08T23:47:33.810Z,12.20
2018-04-08T23:50:03.136Z,12.20
2018-04-08T23:52:31.519Z,12.10
2018-04-08T23:54:59.948Z,12.10
2018-04-08T23:57:29.372Z,12.00
2018-04-08T23:59:57.873Z,11.90
